sensor_id;sensor_type;location;lat;lon;timestamp;P1;durP1;ratioP1;P2;durP2;ratioP2
68989;SDS011;56046;47.270;11.368;2023-04-30T00:01:39;5.03;;;2.70;;
68989;SDS011;56046;47.270;11.368;2023-04-30T00:04:04;5.50;;;3.50;;
68989;SDS011;56046;47.270;11.368;2023-04-30T00:06:29;8.82;;;3.58;;
68989;SDS011;56046;47.270;11.368;2023-04-30T00:08:55;6.10;;;3.53;;
68989;SDS011;56046;47.270;11.368;2023-04-30T00:11:20;6.00;;;3.30;;
68989;SDS011;56046;47.270;11.368;2023-04-30T00:13:46;7.10;;;3.50;;
68989;SDS011;56046;47.270;11.368;2023-04-30T00:16:11;6.22;;;3.50;;
68989;SDS011;56046;47.270;11.368;2023-04-30T00:18:37;7.17;;;3.70;;
68989;SDS011;56046;47.270;11.368;2023-04-30T00:21:02;6.00;;;3.10;;
68989;SDS011;56046;47.270;11.368;2023-04-30T00:23:27;5.87;;;3.30;;
68989;SDS011;56046;47.270;11.368;2023-04-30T00:25:52;5.70;;;3.20;;
68989;SDS011;56046;47.270;11.368;2023-04-30T00:28:18;7.30;;;3.60;;
68989;SDS011;56046;47.270;11.368;2023-04-30T00:30:43;6.60;;;3.37;;
68989;SDS011;56046;47.270;11.368;2023-04-30T00:33:09;5.70;;;3.28;;
68989;SDS011;56046;47.270;11.368;2023-04-30T00:35:34;7.70;;;3.80;;
68989;SDS011;56046;47.270;11.368;2023-04-30T00:37:59;6.53;;;3.20;;
68989;SDS011;56046;47.270;11.368;2023-04-30T00:40:25;5.83;;;3.23;;
68989;SDS011;56046;47.270;11.368;2023-04-30T00:42:50;6.35;;;3.00;;
68989;SDS011;56046;47.270;11.368;2023-04-30T00:45:17;5.30;;;3.07;;
68989;SDS011;56046;47.270;11.368;2023-04-30T00:47:46;6.03;;;3.20;;
68989;SDS011;56046;47.270;11.368;2023-04-30T00:50:11;6.80;;;3.67;;
68989;SDS011;56046;47.270;11.368;2023-04-30T00:52:39;7.95;;;3.97;;
68989;SDS011;56046;47.270;11.368;2023-04-30T00:55:05;7.13;;;3.87;;
68989;SDS011;56046;47.270;11.368;2023-04-30T00:57:30;5.88;;;3.60;;
68989;SDS011;56046;47.270;11.368;2023-04-30T00:59:56;6.13;;;3.60;;
68989;SDS011;56046;47.270;11.368;2023-04-30T01:02:21;6.03;;;3.70;;
68989;SDS011;56046;47.270;11.368;2023-04-30T01:04:47;6.97;;;4.15;;
68989;SDS011;56046;47.270;11.368;2023-04-30T01:07:12;5.67;;;3.73;;
68989;SDS011;56046;47.270;11.368;2023-04-30T01:09:37;7.40;;;4.17;;
68989;SDS011;56046;47.270;11.368;2023-04-30T01:12:12;7.47;;;3.97;;
68989;SDS011;56046;47.270;11.368;2023-04-30T01:19:52;5.80;;;3.43;;
68989;SDS011;56046;47.270;11.368;2023-04-30T01:29:54;5.18;;;2.80;;
68989;SDS011;56046;47.270;11.368;2023-04-30T01:32:20;4.13;;;2.67;;
68989;SDS011;56046;47.270;11.368;2023-04-30T01:34:45;6.03;;;2.90;;
68989;SDS011;56046;47.270;11.368;2023-04-30T01:42:32;6.40;;;3.43;;
68989;SDS011;56046;47.270;11.368;2023-04-30T01:47:38;7.60;;;4.65;;
68989;SDS011;56046;47.270;11.368;2023-04-30T01:52:40;9.77;;;5.13;;
68989;SDS011;56046;47.270;11.368;2023-04-30T01:57:32;9.65;;;5.25;;
68989;SDS011;56046;47.270;11.368;2023-04-30T01:59:58;8.13;;;5.30;;
68989;SDS011;56046;47.270;11.368;2023-04-30T02:02:24;9.18;;;5.57;;
68989;SDS011;56046;47.270;11.368;2023-04-30T02:04:49;7.47;;;5.40;;
68989;SDS011;56046;47.270;11.368;2023-04-30T02:07:16;9.70;;;5.87;;
68989;SDS011;56046;47.270;11.368;2023-04-30T02:09:44;9.55;;;5.55;;
68989;SDS011;56046;47.270;11.368;2023-04-30T02:12:10;8.30;;;5.20;;
68989;SDS011;56046;47.270;11.368;2023-04-30T02:14:35;8.20;;;4.70;;
68989;SDS011;56046;47.270;11.368;2023-04-30T02:17:00;8.40;;;5.13;;
68989;SDS011;56046;47.270;11.368;2023-04-30T02:19:25;7.00;;;4.00;;
68989;SDS011;56046;47.270;11.368;2023-04-30T02:21:51;9.03;;;4.50;;
68989;SDS011;56046;47.270;11.368;2023-04-30T02:24:16;8.17;;;5.07;;
68989;SDS011;56046;47.270;11.368;2023-04-30T02:26:42;9.02;;;5.10;;
68989;SDS011;56046;47.270;11.368;2023-04-30T02:29:08;8.43;;;5.00;;
68989;SDS011;56046;47.270;11.368;2023-04-30T02:31:33;8.70;;;5.63;;
68989;SDS011;56046;47.270;11.368;2023-04-30T02:33:58;8.60;;;5.73;;
68989;SDS011;56046;47.270;11.368;2023-04-30T02:36:23;12.30;;;5.57;;
68989;SDS011;56046;47.270;11.368;2023-04-30T02:38:49;10.83;;;5.30;;
68989;SDS011;56046;47.270;11.368;2023-04-30T02:41:14;9.35;;;5.47;;
68989;SDS011;56046;47.270;11.368;2023-04-30T02:43:39;10.60;;;5.80;;
68989;SDS011;56046;47.270;11.368;2023-04-30T02:46:04;9.03;;;5.43;;
68989;SDS011;56046;47.270;11.368;2023-04-30T02:48:30;9.10;;;5.70;;
68989;SDS011;56046;47.270;11.368;2023-04-30T02:50:55;8.80;;;5.30;;
68989;SDS011;56046;47.270;11.368;2023-04-30T02:53:21;10.30;;;6.17;;
68989;SDS011;56046;47.270;11.368;2023-04-30T02:55:46;9.53;;;5.90;;
68989;SDS011;56046;47.270;11.368;2023-04-30T02:58:11;12.37;;;6.13;;
68989;SDS011;56046;47.270;11.368;2023-04-30T03:00:37;9.80;;;5.75;;
68989;SDS011;56046;47.270;11.368;2023-04-30T03:03:02;10.23;;;6.03;;
68989;SDS011;56046;47.270;11.368;2023-04-30T03:05:28;11.40;;;7.10;;
68989;SDS011;56046;47.270;11.368;2023-04-30T03:07:54;10.98;;;6.95;;
68989;SDS011;56046;47.270;11.368;2023-04-30T03:10:20;11.00;;;7.10;;
68989;SDS011;56046;47.270;11.368;2023-04-30T03:12:45;11.57;;;6.70;;
68989;SDS011;56046;47.270;11.368;2023-04-30T03:15:10;11.33;;;7.27;;
68989;SDS011;56046;47.270;11.368;2023-04-30T03:17:35;11.60;;;7.03;;
68989;SDS011;56046;47.270;11.368;2023-04-30T03:20:01;11.67;;;7.27;;
68989;SDS011;56046;47.270;11.368;2023-04-30T03:22:26;11.90;;;7.17;;
68989;SDS011;56046;47.270;11.368;2023-04-30T03:24:52;13.50;;;7.57;;
68989;SDS011;56046;47.270;11.368;2023-04-30T03:27:17;12.67;;;7.33;;
68989;SDS011;56046;47.270;11.368;2023-04-30T03:29:42;12.67;;;7.20;;
68989;SDS011;56046;47.270;11.368;2023-04-30T03:32:08;12.43;;;7.03;;
68989;SDS011;56046;47.270;11.368;2023-04-30T03:34:33;13.83;;;6.83;;
68989;SDS011;56046;47.270;11.368;2023-04-30T03:36:58;13.47;;;7.73;;
68989;SDS011;56046;47.270;11.368;2023-04-30T03:39:25;15.52;;;7.90;;
68989;SDS011;56046;47.270;11.368;2023-04-30T03:41:51;13.65;;;7.55;;
68989;SDS011;56046;47.270;11.368;2023-04-30T03:44:16;12.80;;;7.87;;
68989;SDS011;56046;47.270;11.368;2023-04-30T03:46:41;12.23;;;7.77;;
68989;SDS011;56046;47.270;11.368;2023-04-30T03:49:07;15.43;;;8.77;;
68989;SDS011;56046;47.270;11.368;2023-04-30T03:51:33;13.27;;;8.10;;
68989;SDS011;56046;47.270;11.368;2023-04-30T03:54:00;15.20;;;8.13;;
68989;SDS011;56046;47.270;11.368;2023-04-30T03:56:25;14.13;;;8.13;;
68989;SDS011;56046;47.270;11.368;2023-04-30T03:58:50;15.67;;;8.77;;
68989;SDS011;56046;47.270;11.368;2023-04-30T04:01:16;14.63;;;8.60;;
68989;SDS011;56046;47.270;11.368;2023-04-30T04:03:42;15.48;;;8.98;;
68989;SDS011;56046;47.270;11.368;2023-04-30T04:06:07;14.33;;;8.67;;
68989;SDS011;56046;47.270;11.368;2023-04-30T04:08:32;17.20;;;9.17;;
68989;SDS011;56046;47.270;11.368;2023-04-30T04:10:58;18.07;;;9.23;;
68989;SDS011;56046;47.270;11.368;2023-04-30T04:13:23;17.30;;;9.30;;
68989;SDS011;56046;47.270;11.368;2023-04-30T04:15:48;18.70;;;9.60;;
68989;SDS011;56046;47.270;11.368;2023-04-30T04:18:13;17.47;;;8.97;;
68989;SDS011;56046;47.270;11.368;2023-04-30T04:20:39;15.80;;;8.33;;
68989;SDS011;56046;47.270;11.368;2023-04-30T04:23:04;17.43;;;8.60;;
68989;SDS011;56046;47.270;11.368;2023-04-30T04:25:29;17.13;;;9.63;;
68989;SDS011;56046;47.270;11.368;2023-04-30T04:27:54;16.60;;;9.00;;
68989;SDS011;56046;47.270;11.368;2023-04-30T04:30:20;15.57;;;9.13;;
68989;SDS011;56046;47.270;11.368;2023-04-30T04:32:45;15.13;;;9.20;;
68989;SDS011;56046;47.270;11.368;2023-04-30T04:35:15;16.90;;;9.13;;
68989;SDS011;56046;47.270;11.368;2023-04-30T04:37:40;15.32;;;8.68;;
68989;SDS011;56046;47.270;11.368;2023-04-30T04:40:06;14.87;;;8.47;;
68989;SDS011;56046;47.270;11.368;2023-04-30T04:42:31;15.75;;;8.57;;
68989;SDS011;56046;47.270;11.368;2023-04-30T04:44:57;17.67;;;10.00;;
68989;SDS011;56046;47.270;11.368;2023-04-30T04:47:22;16.00;;;8.73;;
68989;SDS011;56046;47.270;11.368;2023-04-30T04:49:48;15.07;;;8.38;;
68989;SDS011;56046;47.270;11.368;2023-04-30T04:52:13;18.00;;;9.73;;
68989;SDS011;56046;47.270;11.368;2023-04-30T04:54:39;15.97;;;9.20;;
68989;SDS011;56046;47.270;11.368;2023-04-30T04:57:04;16.23;;;9.33;;
68989;SDS011;56046;47.270;11.368;2023-04-30T04:59:29;14.27;;;8.70;;
68989;SDS011;56046;47.270;11.368;2023-04-30T05:01:55;15.27;;;8.87;;
68989;SDS011;56046;47.270;11.368;2023-04-30T05:04:20;13.27;;;8.52;;
68989;SDS011;56046;47.270;11.368;2023-04-30T05:06:45;15.90;;;8.37;;
68989;SDS011;56046;47.270;11.368;2023-04-30T05:09:11;13.90;;;8.97;;
68989;SDS011;56046;47.270;11.368;2023-04-30T05:11:36;14.80;;;8.57;;
68989;SDS011;56046;47.270;11.368;2023-04-30T05:14:02;14.77;;;8.47;;
68989;SDS011;56046;47.270;11.368;2023-04-30T05:16:27;17.30;;;9.57;;
68989;SDS011;56046;47.270;11.368;2023-04-30T05:18:52;14.67;;;8.97;;
68989;SDS011;56046;47.270;11.368;2023-04-30T05:21:17;15.73;;;9.40;;
68989;SDS011;56046;47.270;11.368;2023-04-30T05:23:43;14.67;;;9.13;;
68989;SDS011;56046;47.270;11.368;2023-04-30T05:26:08;15.13;;;8.27;;
68989;SDS011;56046;47.270;11.368;2023-04-30T05:28:34;13.60;;;8.30;;
68989;SDS011;56046;47.270;11.368;2023-04-30T05:30:59;15.47;;;8.73;;
68989;SDS011;56046;47.270;11.368;2023-04-30T05:33:24;13.77;;;8.40;;
68989;SDS011;56046;47.270;11.368;2023-04-30T05:35:50;12.87;;;7.70;;
68989;SDS011;56046;47.270;11.368;2023-04-30T05:38:15;13.03;;;7.80;;
68989;SDS011;56046;47.270;11.368;2023-04-30T05:40:40;15.30;;;8.30;;
68989;SDS011;56046;47.270;11.368;2023-04-30T05:43:05;15.90;;;8.90;;
68989;SDS011;56046;47.270;11.368;2023-04-30T05:45:31;15.93;;;9.00;;
68989;SDS011;56046;47.270;11.368;2023-04-30T05:47:56;14.37;;;7.77;;
68989;SDS011;56046;47.270;11.368;2023-04-30T05:50:21;13.77;;;8.03;;
68989;SDS011;56046;47.270;11.368;2023-04-30T05:52:46;14.27;;;7.80;;
68989;SDS011;56046;47.270;11.368;2023-04-30T05:55:12;15.90;;;8.77;;
68989;SDS011;56046;47.270;11.368;2023-04-30T05:57:37;15.60;;;8.85;;
68989;SDS011;56046;47.270;11.368;2023-04-30T06:00:03;15.17;;;8.20;;
68989;SDS011;56046;47.270;11.368;2023-04-30T06:02:30;16.67;;;8.90;;
68989;SDS011;56046;47.270;11.368;2023-04-30T06:04:56;14.35;;;8.63;;
68989;SDS011;56046;47.270;11.368;2023-04-30T06:07:21;13.53;;;8.80;;
68989;SDS011;56046;47.270;11.368;2023-04-30T06:09:46;13.17;;;8.53;;
68989;SDS011;56046;47.270;11.368;2023-04-30T06:12:11;14.07;;;7.77;;
68989;SDS011;56046;47.270;11.368;2023-04-30T06:14:37;12.90;;;7.80;;
68989;SDS011;56046;47.270;11.368;2023-04-30T06:17:02;12.80;;;8.07;;
68989;SDS011;56046;47.270;11.368;2023-04-30T06:19:27;13.80;;;8.67;;
68989;SDS011;56046;47.270;11.368;2023-04-30T06:21:53;14.63;;;8.37;;
68989;SDS011;56046;47.270;11.368;2023-04-30T06:24:18;13.57;;;8.37;;
68989;SDS011;56046;47.270;11.368;2023-04-30T06:26:43;13.07;;;8.17;;
68989;SDS011;56046;47.270;11.368;2023-04-30T06:29:08;14.97;;;7.90;;
68989;SDS011;56046;47.270;11.368;2023-04-30T06:31:34;13.30;;;8.30;;
68989;SDS011;56046;47.270;11.368;2023-04-30T06:33:59;12.25;;;7.85;;
68989;SDS011;56046;47.270;11.368;2023-04-30T06:36:24;12.33;;;7.93;;
68989;SDS011;56046;47.270;11.368;2023-04-30T06:38:49;14.00;;;7.67;;
68989;SDS011;56046;47.270;11.368;2023-04-30T06:41:15;12.00;;;7.70;;
68989;SDS011;56046;47.270;11.368;2023-04-30T06:43:41;11.00;;;7.55;;
68989;SDS011;56046;47.270;11.368;2023-04-30T06:46:07;10.60;;;7.50;;
68989;SDS011;56046;47.270;11.368;2023-04-30T06:48:32;12.33;;;7.53;;
68989;SDS011;56046;47.270;11.368;2023-04-30T06:50:57;11.57;;;7.30;;
68989;SDS011;56046;47.270;11.368;2023-04-30T06:53:23;11.75;;;7.53;;
68989;SDS011;56046;47.270;11.368;2023-04-30T06:55:48;12.97;;;7.30;;
68989;SDS011;56046;47.270;11.368;2023-04-30T06:58:13;12.20;;;7.53;;
68989;SDS011;56046;47.270;11.368;2023-04-30T07:00:39;12.23;;;7.90;;
68989;SDS011;56046;47.270;11.368;2023-04-30T07:03:04;14.00;;;8.20;;
68989;SDS011;56046;47.270;11.368;2023-04-30T07:05:29;11.67;;;7.80;;
68989;SDS011;56046;47.270;11.368;2023-04-30T07:07:55;14.43;;;8.05;;
68989;SDS011;56046;47.270;11.368;2023-04-30T07:10:21;12.07;;;7.30;;
68989;SDS011;56046;47.270;11.368;2023-04-30T07:12:46;11.53;;;7.73;;
68989;SDS011;56046;47.270;11.368;2023-04-30T07:15:11;12.13;;;6.97;;
68989;SDS011;56046;47.270;11.368;2023-04-30T07:17:37;11.17;;;7.13;;
68989;SDS011;56046;47.270;11.368;2023-04-30T07:20:03;11.00;;;7.10;;
68989;SDS011;56046;47.270;11.368;2023-04-30T07:22:28;10.55;;;6.78;;
68989;SDS011;56046;47.270;11.368;2023-04-30T07:24:54;11.02;;;6.80;;
68989;SDS011;56046;47.270;11.368;2023-04-30T07:27:20;11.30;;;7.20;;
68989;SDS011;56046;47.270;11.368;2023-04-30T07:29:45;10.70;;;6.60;;
68989;SDS011;56046;47.270;11.368;2023-04-30T07:32:10;12.37;;;7.47;;
68989;SDS011;56046;47.270;11.368;2023-04-30T07:34:35;11.63;;;7.10;;
68989;SDS011;56046;47.270;11.368;2023-04-30T07:37:01;10.23;;;6.83;;
68989;SDS011;56046;47.270;11.368;2023-04-30T07:39:26;12.32;;;7.97;;
68989;SDS011;56046;47.270;11.368;2023-04-30T07:41:52;12.53;;;7.50;;
68989;SDS011;56046;47.270;11.368;2023-04-30T07:44:17;11.63;;;7.10;;
68989;SDS011;56046;47.270;11.368;2023-04-30T07:46:43;12.07;;;7.00;;
68989;SDS011;56046;47.270;11.368;2023-04-30T07:49:08;10.33;;;6.90;;
68989;SDS011;56046;47.270;11.368;2023-04-30T07:51:33;12.00;;;7.33;;
68989;SDS011;56046;47.270;11.368;2023-04-30T07:53:59;11.50;;;7.05;;
68989;SDS011;56046;47.270;11.368;2023-04-30T07:56:25;10.33;;;6.60;;
68989;SDS011;56046;47.270;11.368;2023-04-30T07:58:50;9.27;;;6.17;;
68989;SDS011;56046;47.270;11.368;2023-04-30T08:01:15;9.87;;;6.30;;
68989;SDS011;56046;47.270;11.368;2023-04-30T08:03:41;10.83;;;6.53;;
68989;SDS011;56046;47.270;11.368;2023-04-30T08:06:06;10.37;;;6.93;;
68989;SDS011;56046;47.270;11.368;2023-04-30T08:08:31;9.13;;;5.70;;
68989;SDS011;56046;47.270;11.368;2023-04-30T08:10:57;8.60;;;6.00;;
68989;SDS011;56046;47.270;11.368;2023-04-30T08:13:22;9.87;;;5.63;;
68989;SDS011;56046;47.270;11.368;2023-04-30T08:15:47;9.00;;;5.80;;
68989;SDS011;56046;47.270;11.368;2023-04-30T08:18:12;8.07;;;5.33;;
68989;SDS011;56046;47.270;11.368;2023-04-30T08:20:38;10.87;;;5.83;;
68989;SDS011;56046;47.270;11.368;2023-04-30T08:23:03;9.67;;;5.63;;
68989;SDS011;56046;47.270;11.368;2023-04-30T08:25:28;8.17;;;5.37;;
68989;SDS011;56046;47.270;11.368;2023-04-30T08:27:55;8.88;;;6.03;;
68989;SDS011;56046;47.270;11.368;2023-04-30T08:30:20;9.47;;;5.40;;
68989;SDS011;56046;47.270;11.368;2023-04-30T08:32:46;9.10;;;5.77;;
68989;SDS011;56046;47.270;11.368;2023-04-30T08:35:11;8.03;;;5.70;;
68989;SDS011;56046;47.270;11.368;2023-04-30T08:37:36;9.15;;;5.85;;
68989;SDS011;56046;47.270;11.368;2023-04-30T08:40:01;8.57;;;5.90;;
68989;SDS011;56046;47.270;11.368;2023-04-30T08:42:29;9.40;;;5.97;;
68989;SDS011;56046;47.270;11.368;2023-04-30T08:44:55;8.73;;;6.28;;
68989;SDS011;56046;47.270;11.368;2023-04-30T08:47:20;8.80;;;6.27;;
68989;SDS011;56046;47.270;11.368;2023-04-30T08:49:46;8.43;;;5.70;;
68989;SDS011;56046;47.270;11.368;2023-04-30T08:52:12;8.30;;;5.80;;
68989;SDS011;56046;47.270;11.368;2023-04-30T08:54:38;8.10;;;5.80;;
68989;SDS011;56046;47.270;11.368;2023-04-30T08:57:04;7.88;;;5.50;;
68989;SDS011;56046;47.270;11.368;2023-04-30T08:59:29;7.77;;;5.47;;
68989;SDS011;56046;47.270;11.368;2023-04-30T09:01:54;7.38;;;5.30;;
68989;SDS011;56046;47.270;11.368;2023-04-30T09:04:20;8.83;;;5.67;;
68989;SDS011;56046;47.270;11.368;2023-04-30T09:06:45;8.50;;;6.20;;
68989;SDS011;56046;47.270;11.368;2023-04-30T09:09:14;9.00;;;6.33;;
68989;SDS011;56046;47.270;11.368;2023-04-30T09:11:39;9.13;;;5.65;;
68989;SDS011;56046;47.270;11.368;2023-04-30T09:14:06;8.30;;;5.70;;
68989;SDS011;56046;47.270;11.368;2023-04-30T09:16:47;7.77;;;5.50;;
68989;SDS011;56046;47.270;11.368;2023-04-30T09:19:28;7.50;;;4.97;;
68989;SDS011;56046;47.270;11.368;2023-04-30T09:21:54;7.82;;;5.20;;
68989;SDS011;56046;47.270;11.368;2023-04-30T09:24:19;8.23;;;4.50;;
68989;SDS011;56046;47.270;11.368;2023-04-30T09:26:45;7.97;;;5.50;;
68989;SDS011;56046;47.270;11.368;2023-04-30T09:29:13;7.15;;;5.05;;
68989;SDS011;56046;47.270;11.368;2023-04-30T09:31:41;8.27;;;5.57;;
68989;SDS011;56046;47.270;11.368;2023-04-30T09:34:06;7.28;;;4.93;;
68989;SDS011;56046;47.270;11.368;2023-04-30T09:36:32;7.03;;;4.90;;
68989;SDS011;56046;47.270;11.368;2023-04-30T09:39:07;7.47;;;4.80;;
68989;SDS011;56046;47.270;11.368;2023-04-30T09:41:32;7.13;;;5.03;;
68989;SDS011;56046;47.270;11.368;2023-04-30T09:43:58;7.45;;;5.13;;
68989;SDS011;56046;47.270;11.368;2023-04-30T09:46:30;6.73;;;4.87;;
68989;SDS011;56046;47.270;11.368;2023-04-30T09:48:56;7.07;;;4.93;;
68989;SDS011;56046;47.270;11.368;2023-04-30T09:51:22;7.85;;;4.75;;
68989;SDS011;56046;47.270;11.368;2023-04-30T09:53:47;6.40;;;4.10;;
68989;SDS011;56046;47.270;11.368;2023-04-30T09:56:14;8.52;;;4.38;;
68989;SDS011;56046;47.270;11.368;2023-04-30T09:58:43;5.47;;;3.72;;
68989;SDS011;56046;47.270;11.368;2023-04-30T10:01:10;5.87;;;4.13;;
68989;SDS011;56046;47.270;11.368;2023-04-30T10:03:36;6.15;;;4.38;;
68989;SDS011;56046;47.270;11.368;2023-04-30T10:06:03;5.82;;;4.43;;
68989;SDS011;56046;47.270;11.368;2023-04-30T10:08:47;5.40;;;3.87;;
68989;SDS011;56046;47.270;11.368;2023-04-30T10:11:22;5.85;;;4.00;;
68989;SDS011;56046;47.270;11.368;2023-04-30T10:13:58;5.17;;;3.77;;
68989;SDS011;56046;47.270;11.368;2023-04-30T10:18:51;5.50;;;4.00;;
68989;SDS011;56046;47.270;11.368;2023-04-30T10:21:16;6.40;;;4.10;;
68989;SDS011;56046;47.270;11.368;2023-04-30T10:23:42;6.57;;;3.65;;
68989;SDS011;56046;47.270;11.368;2023-04-30T10:26:11;5.30;;;3.60;;
68989;SDS011;56046;47.270;11.368;2023-04-30T10:28:36;5.90;;;3.45;;
68989;SDS011;56046;47.270;11.368;2023-04-30T10:31:02;7.23;;;3.80;;
68989;SDS011;56046;47.270;11.368;2023-04-30T10:33:33;5.25;;;3.50;;
68989;SDS011;56046;47.270;11.368;2023-04-30T10:36:05;5.03;;;3.40;;
68989;SDS011;56046;47.270;11.368;2023-04-30T10:38:31;4.70;;;3.17;;
68989;SDS011;56046;47.270;11.368;2023-04-30T10:41:00;7.40;;;4.00;;
68989;SDS011;56046;47.270;11.368;2023-04-30T10:43:26;5.80;;;3.55;;
68989;SDS011;56046;47.270;11.368;2023-04-30T10:45:51;5.40;;;3.30;;
68989;SDS011;56046;47.270;11.368;2023-04-30T10:48:16;4.63;;;3.30;;
68989;SDS011;56046;47.270;11.368;2023-04-30T10:50:50;4.07;;;2.80;;
68989;SDS011;56046;47.270;11.368;2023-04-30T10:53:18;5.13;;;3.53;;
68989;SDS011;56046;47.270;11.368;2023-04-30T10:55:52;4.75;;;3.15;;
68989;SDS011;56046;47.270;11.368;2023-04-30T10:58:30;3.47;;;2.37;;
68989;SDS011;56046;47.270;11.368;2023-04-30T11:01:12;3.80;;;2.60;;
68989;SDS011;56046;47.270;11.368;2023-04-30T11:03:39;3.20;;;2.20;;
68989;SDS011;56046;47.270;11.368;2023-04-30T11:06:11;3.42;;;2.40;;
68989;SDS011;56046;47.270;11.368;2023-04-30T11:08:37;4.10;;;2.42;;
68989;SDS011;56046;47.270;11.368;2023-04-30T11:11:03;4.03;;;2.67;;
68989;SDS011;56046;47.270;11.368;2023-04-30T11:13:37;4.38;;;2.78;;
68989;SDS011;56046;47.270;11.368;2023-04-30T11:16:02;3.03;;;2.17;;
68989;SDS011;56046;47.270;11.368;2023-04-30T11:18:28;3.53;;;2.40;;
68989;SDS011;56046;47.270;11.368;2023-04-30T11:20:55;4.20;;;2.30;;
68989;SDS011;56046;47.270;11.368;2023-04-30T11:23:22;3.15;;;2.33;;
68989;SDS011;56046;47.270;11.368;2023-04-30T11:25:47;2.80;;;1.98;;
68989;SDS011;56046;47.270;11.368;2023-04-30T11:28:25;4.37;;;2.30;;
68989;SDS011;56046;47.270;11.368;2023-04-30T11:30:55;2.78;;;1.80;;
68989;SDS011;56046;47.270;11.368;2023-04-30T11:33:28;2.88;;;2.00;;
68989;SDS011;56046;47.270;11.368;2023-04-30T11:35:54;2.57;;;1.80;;
68989;SDS011;56046;47.270;11.368;2023-04-30T11:38:30;2.47;;;1.70;;
68989;SDS011;56046;47.270;11.368;2023-04-30T11:40:59;2.10;;;1.42;;
68989;SDS011;56046;47.270;11.368;2023-04-30T11:43:25;3.08;;;1.80;;
68989;SDS011;56046;47.270;11.368;2023-04-30T11:48:35;2.33;;;1.50;;
68989;SDS011;56046;47.270;11.368;2023-04-30T11:51:02;2.03;;;1.50;;
68989;SDS011;56046;47.270;11.368;2023-04-30T11:53:27;1.90;;;1.50;;
68989;SDS011;56046;47.270;11.368;2023-04-30T11:55:53;2.15;;;1.70;;
68989;SDS011;56046;47.270;11.368;2023-04-30T11:58:20;2.80;;;1.90;;
68989;SDS011;56046;47.270;11.368;2023-04-30T12:00:45;2.43;;;1.80;;
68989;SDS011;56046;47.270;11.368;2023-04-30T12:03:12;1.90;;;1.70;;
68989;SDS011;56046;47.270;11.368;2023-04-30T12:05:39;2.08;;;1.88;;
68989;SDS011;56046;47.270;11.368;2023-04-30T12:08:04;2.17;;;1.60;;
68989;SDS011;56046;47.270;11.368;2023-04-30T12:10:34;2.30;;;1.93;;
68989;SDS011;56046;47.270;11.368;2023-04-30T12:13:00;1.88;;;1.42;;
68989;SDS011;56046;47.270;11.368;2023-04-30T12:15:25;1.70;;;1.30;;
68989;SDS011;56046;47.270;11.368;2023-04-30T12:17:51;1.80;;;1.30;;
68989;SDS011;56046;47.270;11.368;2023-04-30T12:20:17;1.60;;;1.30;;
68989;SDS011;56046;47.270;11.368;2023-04-30T12:22:43;1.80;;;1.33;;
68989;SDS011;56046;47.270;11.368;2023-04-30T12:25:12;1.60;;;1.30;;
68989;SDS011;56046;47.270;11.368;2023-04-30T12:27:41;2.13;;;1.40;;
68989;SDS011;56046;47.270;11.368;2023-04-30T12:30:09;2.13;;;1.50;;
68989;SDS011;56046;47.270;11.368;2023-04-30T12:32:38;1.95;;;1.50;;
68989;SDS011;56046;47.270;11.368;2023-04-30T12:35:04;1.90;;;1.50;;
68989;SDS011;56046;47.270;11.368;2023-04-30T12:37:30;1.50;;;1.40;;
68989;SDS011;56046;47.270;11.368;2023-04-30T12:39:55;7.13;;;1.60;;
68989;SDS011;56046;47.270;11.368;2023-04-30T12:42:20;1.77;;;1.40;;
68989;SDS011;56046;47.270;11.368;2023-04-30T12:44:45;1.60;;;1.50;;
68989;SDS011;56046;47.270;11.368;2023-04-30T12:47:11;1.77;;;1.55;;
68989;SDS011;56046;47.270;11.368;2023-04-30T12:49:38;2.00;;;1.38;;
68989;SDS011;56046;47.270;11.368;2023-04-30T12:52:04;2.13;;;1.30;;
68989;SDS011;56046;47.270;11.368;2023-04-30T12:54:33;2.00;;;1.58;;
68989;SDS011;56046;47.270;11.368;2023-04-30T12:57:03;2.45;;;1.40;;
68989;SDS011;56046;47.270;11.368;2023-04-30T12:59:33;1.90;;;1.60;;
68989;SDS011;56046;47.270;11.368;2023-04-30T13:02:08;5.63;;;1.75;;
68989;SDS011;56046;47.270;11.368;2023-04-30T13:04:34;1.40;;;1.30;;
68989;SDS011;56046;47.270;11.368;2023-04-30T13:07:00;2.67;;;1.48;;
68989;SDS011;56046;47.270;11.368;2023-04-30T13:09:25;2.50;;;1.43;;
68989;SDS011;56046;47.270;11.368;2023-04-30T13:11:50;1.60;;;1.50;;
68989;SDS011;56046;47.270;11.368;2023-04-30T13:14:16;1.70;;;1.33;;
68989;SDS011;56046;47.270;11.368;2023-04-30T13:16:42;3.77;;;1.60;;
68989;SDS011;56046;47.270;11.368;2023-04-30T13:19:07;1.50;;;1.10;;
68989;SDS011;56046;47.270;11.368;2023-04-30T13:21:33;1.70;;;1.50;;
68989;SDS011;56046;47.270;11.368;2023-04-30T13:23:58;2.07;;;1.30;;
68989;SDS011;56046;47.270;11.368;2023-04-30T13:26:24;2.97;;;1.17;;
68989;SDS011;56046;47.270;11.368;2023-04-30T13:28:50;1.63;;;1.30;;
68989;SDS011;56046;47.270;11.368;2023-04-30T13:31:15;2.33;;;1.40;;
68989;SDS011;56046;47.270;11.368;2023-04-30T13:33:41;1.50;;;1.20;;
68989;SDS011;56046;47.270;11.368;2023-04-30T13:36:06;1.23;;;1.13;;
68989;SDS011;56046;47.270;11.368;2023-04-30T13:38:31;2.97;;;1.57;;
68989;SDS011;56046;47.270;11.368;2023-04-30T13:40:57;1.47;;;1.17;;
68989;SDS011;56046;47.270;11.368;2023-04-30T13:43:22;1.53;;;1.20;;
68989;SDS011;56046;47.270;11.368;2023-04-30T13:45:47;2.27;;;1.30;;
68989;SDS011;56046;47.270;11.368;2023-04-30T13:48:12;1.40;;;1.17;;
68989;SDS011;56046;47.270;11.368;2023-04-30T13:50:38;1.67;;;1.40;;
68989;SDS011;56046;47.270;11.368;2023-04-30T13:53:03;1.53;;;1.30;;
68989;SDS011;56046;47.270;11.368;2023-04-30T13:55:28;1.50;;;1.23;;
68989;SDS011;56046;47.270;11.368;2023-04-30T13:57:54;1.63;;;1.20;;
68989;SDS011;56046;47.270;11.368;2023-04-30T14:00:19;2.00;;;1.40;;
68989;SDS011;56046;47.270;11.368;2023-04-30T14:02:45;3.10;;;1.50;;
68989;SDS011;56046;47.270;11.368;2023-04-30T14:05:11;1.80;;;1.40;;
68989;SDS011;56046;47.270;11.368;2023-04-30T14:07:36;2.67;;;1.47;;
68989;SDS011;56046;47.270;11.368;2023-04-30T14:10:01;2.37;;;1.50;;
68989;SDS011;56046;47.270;11.368;2023-04-30T14:12:27;1.90;;;1.45;;
68989;SDS011;56046;47.270;11.368;2023-04-30T14:14:54;2.03;;;1.60;;
68989;SDS011;56046;47.270;11.368;2023-04-30T14:17:19;3.43;;;1.67;;
68989;SDS011;56046;47.270;11.368;2023-04-30T14:19:45;3.20;;;1.40;;
68989;SDS011;56046;47.270;11.368;2023-04-30T14:22:10;2.70;;;1.37;;
68989;SDS011;56046;47.270;11.368;2023-04-30T14:24:35;2.57;;;1.27;;
68989;SDS011;56046;47.270;11.368;2023-04-30T14:27:01;2.13;;;1.60;;
68989;SDS011;56046;47.270;11.368;2023-04-30T14:29:27;2.22;;;1.40;;
68989;SDS011;56046;47.270;11.368;2023-04-30T14:31:53;2.07;;;1.30;;
68989;SDS011;56046;47.270;11.368;2023-04-30T14:34:18;2.88;;;1.17;;
68989;SDS011;56046;47.270;11.368;2023-04-30T14:36:43;1.60;;;1.10;;
68989;SDS011;56046;47.270;11.368;2023-04-30T14:39:09;1.73;;;1.30;;
68989;SDS011;56046;47.270;11.368;2023-04-30T14:41:34;1.70;;;1.47;;
68989;SDS011;56046;47.270;11.368;2023-04-30T14:44:00;1.85;;;1.33;;
68989;SDS011;56046;47.270;11.368;2023-04-30T14:46:25;2.43;;;1.57;;
68989;SDS011;56046;47.270;11.368;2023-04-30T14:48:51;2.90;;;1.60;;
68989;SDS011;56046;47.270;11.368;2023-04-30T14:51:16;2.67;;;1.60;;
68989;SDS011;56046;47.270;11.368;2023-04-30T14:53:41;5.57;;;1.93;;
68989;SDS011;56046;47.270;11.368;2023-04-30T14:56:07;3.03;;;1.63;;